Time;durP1;ratioP1;P1;durP2;ratioP2;P2;SDS_P1;SDS_P2;PMS_P1;PMS_P2;Temp;Humidity;BMP_temperature;BMP_pressure;BME280_temperature;BME280_humidity;BME280_pressure;Samples;Min_cycle;Max_cycle;Signal;HPM_P1;HPM_P2
2022/04/11 00:01:56;;;;;;;4.72;0.75;;;;;;;;;;6265297;28;20050;-73
2022/04/11 00:04:57;;;;;;;1.27;1.00;;;;;;;;;;6254110;28;20464;-73
2022/04/11 00:07:59;;;;;;;2.95;1.00;;;;;;;;;;6258670;28;20056;-72
2022/04/11 00:11:00;;;;;;;2.05;0.90;;;;;;;;;;6258740;28;20401;-72
2022/04/11 00:14:04;;;;;;;3.95;0.90;;;;;;;;;;6251188;28;20175;-73
2022/04/11 00:17:07;;;;;;;3.47;0.90;;;;;;;;;;6254194;28;20048;-73
2022/04/11 00:20:09;;;;;;;1.27;0.80;;;;;;;;;;6254201;28;20189;-73
2022/04/11 00:23:11;;;;;;;2.70;0.75;;;;;;;;;;6257272;28;20120;-72
2022/04/11 00:26:13;;;;;;;2.05;0.80;;;;;;;;;;6255980;28;20045;-73
2022/04/11 00:29:15;;;;;;;1.48;0.80;;;;;;;;;;6256849;28;20497;-71
2022/04/11 00:32:18;;;;;;;1.63;0.73;;;;;;;;;;6255053;28;20105;-70
2022/04/11 00:35:19;;;;;;;1.73;0.90;;;;;;;;;;6257336;28;20054;-71
2022/04/11 00:38:21;;;;;;;1.83;0.90;;;;;;;;;;6254533;28;20137;-70
2022/04/11 00:41:23;;;;;;;3.17;0.88;;;;;;;;;;6258171;28;20045;-71
2022/04/11 00:44:24;;;;;;;1.98;1.02;;;;;;;;;;6260554;28;20497;-71
2022/04/11 00:47:27;;;;;;;9.55;1.60;;;;;;;;;;6261467;28;20536;-71
2022/04/11 00:50:29;;;;;;;2.88;1.58;;;;;;;;;;6259307;28;20160;-71
2022/04/11 00:53:32;;;;;;;3.75;1.42;;;;;;;;;;6262490;28;20110;-71
2022/04/11 00:56:35;;;;;;;4.05;1.40;;;;;;;;;;6263358;28;20465;-71
2022/04/11 00:59:37;;;;;;;3.75;1.30;;;;;;;;;;6263559;28;20072;-71
2022/04/11 01:02:40;;;;;;;3.80;1.15;;;;;;;;;;6265442;28;20570;-71
2022/04/11 01:05:42;;;;;;;4.35;1.30;;;;;;;;;;6262779;28;20508;-71
2022/04/11 01:08:44;;;;;;;2.38;1.10;;;;;;;;;;6267325;28;20052;-71
2022/04/11 01:11:45;;;;;;;4.72;1.20;;;;;;;;;;6265067;28;20400;-71
2022/04/11 01:14:47;;;;;;;5.03;1.02;;;;;;;;;;6260071;28;20059;-71
2022/04/11 01:17:50;;;;;;;1.73;1.20;;;;;;;;;;6255214;28;20041;-71
2022/04/11 01:20:52;;;;;;;3.13;1.13;;;;;;;;;;6256965;28;20740;-71
2022/04/11 01:23:55;;;;;;;2.58;1.00;;;;;;;;;;6254008;28;20151;-72
2022/04/11 01:26:56;;;;;;;2.15;1.20;;;;;;;;;;6256881;28;20045;-71
2022/04/11 01:29:58;;;;;;;3.55;1.02;;;;;;;;;;6257112;28;20413;-71
2022/04/11 01:33:00;;;;;;;3.33;1.10;;;;;;;;;;6254120;28;20053;-71
2022/04/11 01:36:01;;;;;;;4.45;1.48;;;;;;;;;;6255253;28;20132;-71
2022/04/11 01:39:05;;;;;;;2.70;1.17;;;;;;;;;;6257101;28;20380;-71
2022/04/11 01:42:07;;;;;;;3.43;1.50;;;;;;;;;;6257864;28;20047;-71
2022/04/11 01:45:10;;;;;;;2.17;1.30;;;;;;;;;;6259119;28;20080;-71
2022/04/11 01:48:12;;;;;;;4.60;1.20;;;;;;;;;;6258355;28;20054;-70
2022/04/11 01:51:14;;;;;;;3.00;1.40;;;;;;;;;;6258810;28;20137;-70
2022/04/11 01:54:17;;;;;;;4.70;1.52;;;;;;;;;;6257754;28;20146;-71
2022/04/11 01:57:19;;;;;;;4.07;1.50;;;;;;;;;;6260554;28;20122;-71
2022/04/11 02:00:20;;;;;;;4.53;1.48;;;;;;;;;;6260567;28;20045;-71
2022/04/11 02:03:22;;;;;;;3.38;1.20;;;;;;;;;;6261427;28;20083;-71
2022/04/11 02:06:23;;;;;;;3.58;1.20;;;;;;;;;;6263181;28;20504;-70
2022/04/11 02:09:26;;;;;;;3.17;1.30;;;;;;;;;;6262404;28;20187;-71
2022/04/11 02:12:28;;;;;;;3.17;1.35;;;;;;;;;;6256752;28;20547;-71
2022/04/11 02:15:30;;;;;;;4.03;1.33;;;;;;;;;;6258395;28;20057;-71
2022/04/11 02:18:31;;;;;;;3.65;1.55;;;;;;;;;;6255950;28;20116;-71
2022/04/11 02:21:34;;;;;;;2.35;1.40;;;;;;;;;;6254450;28;20163;-71
2022/04/11 02:24:37;;;;;;;3.00;1.67;;;;;;;;;;6255342;28;20401;-71
2022/04/11 02:27:38;;;;;;;3.75;1.50;;;;;;;;;;6254166;28;20069;-71
2022/04/11 02:30:40;;;;;;;2.50;1.45;;;;;;;;;;6254617;28;20061;-71
2022/04/11 02:33:42;;;;;;;3.40;1.50;;;;;;;;;;6261601;28;20445;-71
2022/04/11 02:36:43;;;;;;;2.88;1.45;;;;;;;;;;6254438;28;20140;-71
2022/04/11 02:39:46;;;;;;;3.55;1.40;;;;;;;;;;6249765;28;20516;-71
2022/04/11 02:42:48;;;;;;;2.70;1.33;;;;;;;;;;6251705;28;20050;-71
2022/04/11 02:45:49;;;;;;;2.60;1.48;;;;;;;;;;6250810;28;20060;-72
2022/04/11 02:48:51;;;;;;;2.55;1.27;;;;;;;;;;6253796;28;20120;-71
2022/04/11 02:51:53;;;;;;;2.70;1.42;;;;;;;;;;6254915;28;20385;-72
2022/04/11 02:54:56;;;;;;;2.47;1.40;;;;;;;;;;6258379;28;20053;-71
2022/04/11 02:57:58;;;;;;;3.92;1.70;;;;;;;;;;6257557;28;20048;-71
2022/04/11 03:01:00;;;;;;;3.10;1.45;;;;;;;;;;6261185;28;20060;-72
2022/04/11 03:04:01;;;;;;;2.05;1.30;;;;;;;;;;6258622;28;20071;-70
2022/04/11 03:07:03;;;;;;;2.80;1.13;;;;;;;;;;6261845;28;20064;-70
2022/04/11 03:10:08;;;;;;;4.63;1.40;;;;;;;;;;6258471;28;20090;-70
2022/04/11 03:13:10;;;;;;;2.15;1.40;;;;;;;;;;6252011;28;20045;-70
2022/04/11 03:16:12;;;;;;;2.60;1.42;;;;;;;;;;6251800;28;20128;-72
2022/04/11 03:19:13;;;;;;;2.53;1.27;;;;;;;;;;6259232;28;20530;-72
2022/04/11 03:22:15;;;;;;;1.70;1.20;;;;;;;;;;6252984;28;20084;-72
2022/04/11 03:25:18;;;;;;;2.55;1.33;;;;;;;;;;6259395;28;20504;-71
2022/04/11 03:28:20;;;;;;;2.03;1.30;;;;;;;;;;6258213;28;20523;-72
2022/04/11 03:31:21;;;;;;;2.55;1.30;;;;;;;;;;6260039;28;20123;-73
2022/04/11 03:34:23;;;;;;;3.97;1.70;;;;;;;;;;6260820;28;20140;-71
2022/04/11 03:37:25;;;;;;;3.30;1.20;;;;;;;;;;6261463;28;20053;-72
2022/04/11 03:40:28;;;;;;;2.95;2.00;;;;;;;;;;6263659;28;20064;-71
2022/04/11 03:43:29;;;;;;;3.72;2.47;;;;;;;;;;6264238;28;20053;-71
2022/04/11 03:46:31;;;;;;;10.23;1.40;;;;;;;;;;6266650;28;20205;-72
2022/04/11 03:49:33;;;;;;;2.90;1.10;;;;;;;;;;6257348;28;20060;-72
2022/04/11 03:52:34;;;;;;;4.55;1.50;;;;;;;;;;6258447;28;20163;-71
2022/04/11 03:55:37;;;;;;;5.60;1.52;;;;;;;;;;6257829;28;20064;-71
2022/04/11 03:58:39;;;;;;;4.03;1.30;;;;;;;;;;6257347;28;20057;-71
2022/04/11 04:01:40;;;;;;;4.00;1.60;;;;;;;;;;6261156;28;20135;-71
2022/04/11 04:04:42;;;;;;;3.90;1.63;;;;;;;;;;6263154;28;20083;-71
2022/04/11 04:07:43;;;;;;;5.13;1.70;;;;;;;;;;6259384;28;20489;-72
2022/04/11 04:10:46;;;;;;;2.80;1.52;;;;;;;;;;6260172;28;20143;-72
2022/04/11 04:13:48;;;;;;;2.92;1.45;;;;;;;;;;6256782;28;20132;-72
2022/04/11 04:16:50;;;;;;;3.63;1.52;;;;;;;;;;6257700;28;20049;-72
2022/04/11 04:19:52;;;;;;;4.40;1.70;;;;;;;;;;6252192;28;20045;-72
2022/04/11 04:22:54;;;;;;;3.53;1.45;;;;;;;;;;6255115;28;20499;-72
2022/04/11 04:25:57;;;;;;;3.80;1.33;;;;;;;;;;6255888;28;20045;-71
2022/04/11 04:28:59;;;;;;;4.57;1.93;;;;;;;;;;6258043;28;20128;-73
2022/04/11 04:32:01;;;;;;;5.25;1.70;;;;;;;;;;6256179;28;21113;-71
2022/04/11 04:35:05;;;;;;;3.33;1.73;;;;;;;;;;6259868;28;20057;-73
2022/04/11 04:38:07;;;;;;;4.18;1.67;;;;;;;;;;6261132;28;20183;-72
2022/04/11 04:41:10;;;;;;;8.07;2.20;;;;;;;;;;6263928;28;20140;-72
2022/04/11 04:44:11;;;;;;;5.15;1.80;;;;;;;;;;6254627;28;20281;-71
2022/04/11 04:47:15;;;;;;;4.55;1.95;;;;;;;;;;6262681;28;20060;-72
2022/04/11 04:50:17;;;;;;;3.40;1.75;;;;;;;;;;6263467;28;20050;-71
2022/04/11 04:53:18;;;;;;;4.90;2.40;;;;;;;;;;6263815;28;20052;-71
2022/04/11 04:56:21;;;;;;;4.28;2.08;;;;;;;;;;6267755;28;20057;-71
2022/04/11 04:59:23;;;;;;;4.53;2.10;;;;;;;;;;6265515;28;20556;-71
2022/04/11 05:02:25;;;;;;;6.88;2.70;;;;;;;;;;6269308;28;20053;-71
2022/04/11 05:05:26;;;;;;;8.38;2.53;;;;;;;;;;6262070;28;20171;-71
2022/04/11 05:08:28;;;;;;;8.50;3.08;;;;;;;;;;6254335;28;20492;-72
2022/04/11 05:11:31;;;;;;;6.05;2.65;;;;;;;;;;6249803;28;20140;-72
2022/04/11 05:14:32;;;;;;;6.03;2.33;;;;;;;;;;6250875;28;20072;-72
2022/04/11 05:17:34;;;;;;;4.63;2.60;;;;;;;;;;6252234;28;20042;-71
2022/04/11 05:20:36;;;;;;;4.85;3.08;;;;;;;;;;6254457;28;20175;-72
2022/04/11 05:23:38;;;;;;;4.55;2.72;;;;;;;;;;6252946;28;20077;-72
2022/04/11 05:26:41;;;;;;;7.25;2.85;;;;;;;;;;6254477;28;20132;-71
2022/04/11 05:29:42;;;;;;;5.75;2.83;;;;;;;;;;6256995;28;20124;-71
2022/04/11 05:32:44;;;;;;;7.22;3.00;;;;;;;;;;6255586;28;20132;-71
2022/04/11 05:35:46;;;;;;;4.57;2.60;;;;;;;;;;6253602;28;20073;-72
2022/04/11 05:38:47;;;;;;;5.28;2.97;;;;;;;;;;6255922;28;20455;-71
2022/04/11 05:41:50;;;;;;;4.43;2.83;;;;;;;;;;6257529;28;20360;-72
2022/04/11 05:44:52;;;;;;;10.30;3.42;;;;;;;;;;6255594;28;20054;-72
2022/04/11 05:47:53;;;;;;;9.88;3.47;;;;;;;;;;6256624;28;20491;-72
2022/04/11 05:50:59;;;;;;;6.70;3.60;;;;;;;;;;6260565;28;20057;-71
2022/04/11 05:54:00;;;;;;;11.90;3.17;;;;;;;;;;6260779;28;20093;-71
2022/04/11 05:57:04;;;;;;;7.18;2.90;;;;;;;;;;6262437;28;20045;-74
2022/04/11 06:00:07;;;;;;;6.20;3.50;;;;;;;;;;6261600;28;20046;-71
2022/04/11 06:03:09;;;;;;;5.28;3.03;;;;;;;;;;6259278;28;20064;-72
2022/04/11 06:06:10;;;;;;;10.30;4.00;;;;;;;;;;6262179;28;20124;-72
2022/04/11 06:09:12;;;;;;;11.10;3.33;;;;;;;;;;6255453;28;20049;-72
2022/04/11 06:12:15;;;;;;;6.35;3.30;;;;;;;;;;6257270;28;20037;-73
2022/04/11 06:15:17;;;;;;;8.27;3.58;;;;;;;;;;6254847;28;20441;-72
2022/04/11 06:18:19;;;;;;;5.55;3.97;;;;;;;;;;6254316;28;20048;-70
2022/04/11 06:21:20;;;;;;;7.55;4.20;;;;;;;;;;6251349;28;20107;-73
2022/04/11 06:24:22;;;;;;;6.00;3.35;;;;;;;;;;6247022;28;20056;-73
2022/04/11 06:27:25;;;;;;;5.18;3.28;;;;;;;;;;6251489;28;20053;-73
2022/04/11 06:30:27;;;;;;;5.93;3.38;;;;;;;;;;6252755;28;20048;-72
2022/04/11 06:33:28;;;;;;;6.88;4.38;;;;;;;;;;6252978;28;20065;-72
2022/04/11 06:36:30;;;;;;;6.20;3.90;;;;;;;;;;6252955;28;20195;-72
2022/04/11 06:39:32;;;;;;;9.00;3.75;;;;;;;;;;6254224;28;20052;-71
2022/04/11 06:42:35;;;;;;;6.75;4.00;;;;;;;;;;6253517;28;20744;-72
2022/04/11 06:45:36;;;;;;;8.98;4.32;;;;;;;;;;6253949;28;20357;-72
2022/04/11 06:48:38;;;;;;;5.90;3.60;;;;;;;;;;6255445;28;20501;-73
2022/04/11 06:51:40;;;;;;;5.85;3.67;;;;;;;;;;6254319;28;20057;-72
2022/04/11 06:54:41;;;;;;;5.13;3.90;;;;;;;;;;6256940;28;20049;-73
2022/04/11 06:57:44;;;;;;;6.70;4.15;;;;;;;;;;6253989;28;20495;-72
2022/04/11 07:00:47;;;;;;;9.80;4.72;;;;;;;;;;6258735;28;20057;-73
2022/04/11 07:03:48;;;;;;;8.73;4.35;;;;;;;;;;6259267;28;20396;-73
2022/04/11 07:06:50;;;;;;;6.82;3.90;;;;;;;;;;6249103;28;20467;-73
2022/04/11 07:09:51;;;;;;;7.32;4.40;;;;;;;;;;6249605;28;20138;-71
2022/04/11 07:12:54;;;;;;;8.07;4.45;;;;;;;;;;6254289;28;20057;-71
2022/04/11 07:15:56;;;;;;;6.00;4.18;;;;;;;;;;6254165;28;20492;-72
2022/04/11 07:18:58;;;;;;;8.70;4.80;;;;;;;;;;6256844;28;20128;-72
2022/04/11 07:21:59;;;;;;;4.53;3.75;;;;;;;;;;6253084;28;20056;-72
2022/04/11 07:25:01;;;;;;;7.05;3.72;;;;;;;;;;6256864;28;20073;-72
2022/04/11 07:28:05;;;;;;;7.07;4.53;;;;;;;;;;6252429;28;20471;-71
2022/04/11 07:31:08;;;;;;;6.00;4.40;;;;;;;;;;6255459;28;20103;-72
2022/04/11 07:34:09;;;;;;;8.00;4.60;;;;;;;;;;6245319;28;20511;-72
2022/04/11 07:37:11;;;;;;;8.10;4.57;;;;;;;;;;6248465;28;20045;-71
2022/04/11 07:40:13;;;;;;;7.90;4.65;;;;;;;;;;6251514;28;20069;-73
2022/04/11 07:43:16;;;;;;;5.65;4.18;;;;;;;;;;6254418;28;20599;-72
2022/04/11 07:46:18;;;;;;;8.00;4.60;;;;;;;;;;6254659;28;20065;-72
2022/04/11 07:49:19;;;;;;;7.68;4.32;;;;;;;;;;6252244;28;20503;-72
2022/04/11 07:52:21;;;;;;;7.25;4.70;;;;;;;;;;6255510;28;20127;-72
2022/04/11 07:55:24;;;;;;;5.70;4.10;;;;;;;;;;6257847;28;20049;-72
2022/04/11 07:58:27;;;;;;;6.00;4.60;;;;;;;;;;6254985;28;20048;-73
2022/04/11 08:01:28;;;;;;;7.53;4.23;;;;;;;;;;6258138;28;20114;-73
2022/04/11 08:04:30;;;;;;;8.60;4.43;;;;;;;;;;6255923;28;20045;-73
2022/04/11 08:07:33;;;;;;;6.43;4.50;;;;;;;;;;6253426;28;20048;-73
2022/04/11 08:10:35;;;;;;;6.53;4.40;;;;;;;;;;6254877;28;20049;-72
2022/04/11 08:13:38;;;;;;;7.55;4.82;;;;;;;;;;6258302;28;20077;-73
2022/04/11 08:16:39;;;;;;;7.35;4.75;;;;;;;;;;6257588;28;20503;-73
2022/04/11 08:19:41;;;;;;;7.78;5.05;;;;;;;;;;6257122;28;20674;-73
2022/04/11 08:22:43;;;;;;;9.93;4.65;;;;;;;;;;6257537;28;20076;-74
2022/04/11 08:25:44;;;;;;;6.57;4.28;;;;;;;;;;6261034;28;20064;-74
2022/04/11 08:28:49;;;;;;;8.40;4.88;;;;;;;;;;6261636;28;20056;-73
2022/04/11 08:31:51;;;;;;;7.70;5.22;;;;;;;;;;6257754;28;20366;-73
2022/04/11 08:34:52;;;;;;;9.82;4.80;;;;;;;;;;6262661;28;20056;-74
2022/04/11 08:37:54;;;;;;;19.20;13.02;;;;;;;;;;6262043;28;20052;-73
2022/04/11 08:40:56;;;;;;;16.02;12.32;;;;;;;;;;6263531;28;20041;-72
2022/04/11 08:44:00;;;;;;;14.73;7.32;;;;;;;;;;6263280;28;20049;-72
2022/04/11 08:47:03;;;;;;;9.55;5.28;;;;;;;;;;6264656;28;20153;-72
2022/04/11 08:50:06;;;;;;;6.65;5.43;;;;;;;;;;6261269;28;20951;-72
2022/04/11 08:53:08;;;;;;;8.35;5.35;;;;;;;;;;6259971;28;20041;-73
2022/04/11 08:56:10;;;;;;;7.82;5.68;;;;;;;;;;6259512;28;20045;-74
2022/04/11 08:59:13;;;;;;;6.55;4.85;;;;;;;;;;6258501;28;20049;-74
2022/04/11 09:02:15;;;;;;;7.75;5.07;;;;;;;;;;6256515;28;20076;-73
2022/04/11 09:05:20;;;;;;;5.95;5.00;;;;;;;;;;6259427;28;20119;-72
2022/04/11 09:08:37;;;;;;;6.05;5.00;;;;;;;;;;6251419;28;20049;-72
2022/04/11 09:11:39;;;;;;;9.43;5.30;;;;;;;;;;6253731;28;20045;-72
2022/04/11 09:14:42;;;;;;;6.47;4.55;;;;;;;;;;6255258;28;20076;-68
2022/04/11 09:17:44;;;;;;;6.53;4.90;;;;;;;;;;6255854;28;20127;-68
2022/04/11 09:20:47;;;;;;;9.20;5.28;;;;;;;;;;6253958;28;20099;-68
2022/04/11 09:23:49;;;;;;;6.10;4.97;;;;;;;;;;6254454;28;20052;-69
2022/04/11 09:26:54;;;;;;;7.93;5.37;;;;;;;;;;6256326;28;20045;-69
2022/04/11 09:29:57;;;;;;;5.53;4.55;;;;;;;;;;6258185;28;20516;-69
2022/04/11 09:33:03;;;;;;;;;;;;;;;;;;6255169;28;20048;-68
2022/04/11 09:36:05;;;;;;;6.47;4.70;;;;;;;;;;6259602;28;20065;-69
2022/04/11 09:39:07;;;;;;;7.25;5.72;;;;;;;;;;6261005;28;20498;-69
2022/04/11 09:42:08;;;;;;;8.05;5.40;;;;;;;;;;6259203;28;20547;-69
2022/04/11 09:45:17;;;;;;;10.77;5.70;;;;;;;;;;6263314;28;20052;-69
2022/04/11 09:48:21;;;;;;;6.07;4.78;;;;;;;;;;6263927;28;20080;-72
2022/04/11 09:51:23;;;;;;;7.47;5.15;;;;;;;;;;6265141;28;20048;-72
2022/04/11 09:54:26;;;;;;;8.20;5.00;;;;;;;;;;6264485;28;20056;-71
2022/04/11 09:57:31;;;;;;;6.80;5.40;;;;;;;;;;6266846;28;20135;-71
2022/04/11 10:00:35;;;;;;;6.63;5.32;;;;;;;;;;6265371;28;20401;-71
2022/04/11 10:03:37;;;;;;;6.55;5.30;;;;;;;;;;6262179;28;20194;-70
2022/04/11 10:06:39;;;;;;;7.65;5.57;;;;;;;;;;6248650;28;20136;-71
2022/04/11 10:09:40;;;;;;;6.13;5.40;;;;;;;;;;6252977;28;20371;-69
2022/04/11 10:12:42;;;;;;;11.97;6.60;;;;;;;;;;6258592;28;20186;-70
2022/04/11 10:15:47;;;;;;;7.35;5.78;;;;;;;;;;6253852;28;20650;-70
2022/04/11 10:18:48;;;;;;;10.70;5.55;;;;;;;;;;6255481;28;20049;-67
2022/04/11 10:21:50;;;;;;;114.37;94.23;;;;;;;;;;6252724;28;20141;-74
2022/04/11 10:24:59;;;;;;;27.45;21.05;;;;;;;;;;6253986;28;20076;-76
2022/04/11 10:28:17;;;;;;;79.68;55.80;;;;;;;;;;6249431;28;20515;-75
2022/04/11 10:31:20;;;;;;;20.27;17.40;;;;;;;;;;6253643;28;20122;-71
2022/04/11 10:34:45;;;;;;;30.02;24.27;;;;;;;;;;6254982;28;20563;-71
2022/04/11 10:38:06;;;;;;;42.08;37.90;;;;;;;;;;6256417;28;20117;-72
2022/04/11 10:41:08;;;;;;;8.98;7.40;;;;;;;;;;6257614;28;20149;-73
2022/04/11 10:44:31;;;;;;;7.32;5.80;;;;;;;;;;6257707;28;20060;-74
2022/04/11 10:47:35;;;;;;;8.30;5.97;;;;;;;;;;6260874;28;20652;-73
2022/04/11 10:50:37;;;;;;;9.10;5.88;;;;;;;;;;6256192;28;20099;-74
2022/04/11 10:53:40;;;;;;;13.98;6.50;;;;;;;;;;6256266;28;20420;-74
2022/04/11 10:56:51;;;;;;;12.75;5.90;;;;;;;;;;6258789;28;20114;-74
2022/04/11 11:00:07;;;;;;;10.52;5.78;;;;;;;;;;6259397;28;20074;-75
2022/04/11 11:03:13;;;;;;;6.75;5.22;;;;;;;;;;6254782;28;20052;-75
2022/04/11 11:06:17;;;;;;;8.43;5.65;;;;;;;;;;6256234;28;20041;-75
2022/04/11 11:09:19;;;;;;;7.15;5.85;;;;;;;;;;6252557;28;20219;-73
2022/04/11 11:12:21;;;;;;;6.78;6.03;;;;;;;;;;6252354;28;20222;-74
2022/04/11 11:15:27;;;;;;;7.60;6.32;;;;;;;;;;6257527;28;20125;-74
2022/04/11 11:19:08;;;;;;;6.65;5.40;;;;;;;;;;6254706;28;20056;-73
2022/04/11 11:22:09;;;;;;;7.90;6.20;;;;;;;;;;6249470;28;20045;-74
2022/04/11 11:25:16;;;;;;;10.73;6.40;;;;;;;;;;6252048;28;20060;-72
2022/04/11 11:28:18;;;;;;;17.80;13.68;;;;;;;;;;6252221;28;20163;-71
2022/04/11 11:31:21;;;;;;;10.02;7.43;;;;;;;;;;6252607;28;20081;-72
2022/04/11 11:34:25;;;;;;;7.18;5.93;;;;;;;;;;6248935;28;20132;-70
2022/04/11 11:37:28;;;;;;;11.50;5.65;;;;;;;;;;6253291;28;20448;-74
2022/04/11 11:40:30;;;;;;;9.15;7.70;;;;;;;;;;6258715;28;20570;-70
2022/04/11 11:43:33;;;;;;;8.70;5.53;;;;;;;;;;6258552;28;20172;-71
2022/04/11 11:46:46;;;;;;;10.20;5.00;;;;;;;;;;6261229;28;20065;-70
2022/04/11 11:49:50;;;;;;;8.48;5.20;;;;;;;;;;6260058;28;20473;-71
2022/04/11 11:52:57;;;;;;;9.90;4.80;;;;;;;;;;6261297;28;20528;-72
2022/04/11 11:56:04;;;;;;;6.72;4.80;;;;;;;;;;6261516;28;20119;-73
2022/04/11 11:59:05;;;;;;;5.10;4.45;;;;;;;;;;6267151;28;20056;-68
2022/04/11 12:05:30;;;;;;;6.57;4.47;;;;;;;;;;6261598;28;20049;-71
2022/04/11 12:08:33;;;;;;;6.07;4.32;;;;;;;;;;6255604;28;20053;-71
2022/04/11 12:11:35;;;;;;;6.78;4.80;;;;;;;;;;6260027;28;20064;-71
2022/04/11 12:14:59;;;;;;;6.32;4.60;;;;;;;;;;6258844;28;20052;-74
2022/04/11 12:18:02;;;;;;;6.07;4.65;;;;;;;;;;6258849;28;20041;-75
2022/04/11 12:21:12;;;;;;;8.10;4.35;;;;;;;;;;6258010;28;20050;-73
2022/04/11 12:24:13;;;;;;;6.22;4.45;;;;;;;;;;6255617;28;20127;-76
2022/04/11 12:27:23;;;;;;;5.25;4.75;;;;;;;;;;6258964;28;20079;-75
2022/04/11 12:30:24;;;;;;;7.60;4.50;;;;;;;;;;6260121;28;20069;-75
2022/04/11 12:33:34;;;;;;;6.20;4.38;;;;;;;;;;6262000;28;20124;-74
2022/04/11 12:36:37;;;;;;;6.15;5.00;;;;;;;;;;6259440;28;20044;-73
2022/04/11 12:39:52;;;;;;;6.30;4.90;;;;;;;;;;6258092;28;20061;-73
2022/04/11 12:42:59;;;;;;;5.32;4.80;;;;;;;;;;6254667;28;20484;-73
2022/04/11 12:46:07;;;;;;;7.93;5.45;;;;;;;;;;6258097;28;20045;-73
2022/04/11 12:49:10;;;;;;;5.07;4.57;;;;;;;;;;6256809;28;20049;-76
2022/04/11 12:52:14;;;;;;;6.32;5.05;;;;;;;;;;6256513;28;20199;-75
2022/04/11 12:55:15;;;;;;;4.65;4.18;;;;;;;;;;6259409;28;20128;-74
2022/04/11 12:58:21;;;;;;;5.68;4.13;;;;;;;;;;6259473;28;20069;-74
2022/04/11 13:01:23;;;;;;;5.10;4.18;;;;;;;;;;6254741;28;20140;-73
2022/04/11 13:04:25;;;;;;;9.77;4.28;;;;;;;;;;6259777;28;20364;-73
2022/04/11 13:07:28;;;;;;;5.18;4.30;;;;;;;;;;6256449;28;20128;-72
2022/04/11 13:10:31;;;;;;;5.72;4.53;;;;;;;;;;6257003;28;20122;-73
2022/04/11 13:13:33;;;;;;;5.60;4.25;;;;;;;;;;6259020;28;20175;-73
2022/04/11 13:19:54;;;;;;;5.22;4.10;;;;;;;;;;6254256;28;20064;-73
2022/04/11 13:22:57;;;;;;;7.22;4.57;;;;;;;;;;6257695;28;20091;-74
2022/04/11 13:25:59;;;;;;;4.40;3.92;;;;;;;;;;6253794;28;20501;-73
2022/04/11 13:29:01;;;;;;;5.78;4.60;;;;;;;;;;6254990;28;20076;-73
2022/04/11 13:32:03;;;;;;;6.20;4.60;;;;;;;;;;6255926;28;20053;-72
2022/04/11 13:35:05;;;;;;;7.38;4.97;;;;;;;;;;6258585;28;20055;-71
2022/04/11 13:38:08;;;;;;;5.75;4.35;;;;;;;;;;6258084;28;20194;-72
2022/04/11 13:41:10;;;;;;;5.43;4.50;;;;;;;;;;6259926;28;20041;-73
2022/04/11 13:44:11;;;;;;;6.78;4.55;;;;;;;;;;6257413;28;20045;-73
2022/04/11 13:47:13;;;;;;;6.43;4.95;;;;;;;;;;6256073;28;20045;-72
2022/04/11 13:50:15;;;;;;;5.32;4.10;;;;;;;;;;6255605;28;20041;-73
2022/04/11 13:53:18;;;;;;;7.20;3.90;;;;;;;;;;6256539;28;20128;-72
2022/04/11 13:56:21;;;;;;;5.28;4.10;;;;;;;;;;6253990;28;20458;-72
2022/04/11 13:59:25;;;;;;;5.45;3.97;;;;;;;;;;6258801;28;20121;-72
2022/04/11 14:02:27;;;;;;;6.85;4.05;;;;;;;;;;6261259;28;20065;-73
2022/04/11 14:05:29;;;;;;;8.88;4.30;;;;;;;;;;6249884;28;20208;-72
2022/04/11 14:08:32;;;;;;;6.60;4.95;;;;;;;;;;6250685;28;20645;-73
2022/04/11 14:11:34;;;;;;;8.20;4.30;;;;;;;;;;6253037;28;20068;-73
2022/04/11 14:14:36;;;;;;;5.05;4.05;;;;;;;;;;6250261;28;20041;-74
2022/04/11 14:17:37;;;;;;;6.22;4.38;;;;;;;;;;6255568;28;20077;-73
2022/04/11 14:20:39;;;;;;;7.40;4.53;;;;;;;;;;6251530;28;20049;-73
2022/04/11 14:23:42;;;;;;;6.93;3.95;;;;;;;;;;6249523;28;20381;-73
2022/04/11 14:26:47;;;;;;;5.10;4.35;;;;;;;;;;6253307;28;20520;-73
2022/04/11 14:29:53;;;;;;;16.25;4.78;;;;;;;;;;6246456;28;20476;-72
2022/04/11 14:32:55;;;;;;;8.73;4.20;;;;;;;;;;6250271;28;20490;-74
2022/04/11 14:35:57;;;;;;;5.18;4.00;;;;;;;;;;6252712;28;20060;-75
2022/04/11 14:39:00;;;;;;;6.05;4.50;;;;;;;;;;6256766;28;20695;-70
2022/04/11 14:42:02;;;;;;;6.03;4.40;;;;;;;;;;6258322;28;20420;-70
2022/04/11 14:45:04;;;;;;;5.40;4.60;;;;;;;;;;6261173;28;20123;-71
2022/04/11 14:48:07;;;;;;;6.55;5.07;;;;;;;;;;6256588;28;20037;-72
2022/04/11 14:51:09;;;;;;;5.90;4.32;;;;;;;;;;6263360;28;20049;-73
2022/04/11 14:54:12;;;;;;;4.68;4.25;;;;;;;;;;6258548;28;20130;-73
2022/04/11 14:57:14;;;;;;;6.80;4.57;;;;;;;;;;6257016;28;20056;-73
2022/04/11 15:00:16;;;;;;;11.40;4.25;;;;;;;;;;6253762;28;20429;-72
2022/04/11 15:03:18;;;;;;;7.65;4.35;;;;;;;;;;6259283;28;20052;-71
2022/04/11 15:06:20;;;;;;;4.82;4.10;;;;;;;;;;6251751;28;20059;-72
2022/04/11 15:09:23;;;;;;;8.82;4.68;;;;;;;;;;6249750;28;20128;-71
2022/04/11 15:12:25;;;;;;;8.95;4.85;;;;;;;;;;6257141;28;20435;-71
2022/04/11 15:15:27;;;;;;;13.93;4.60;;;;;;;;;;6248675;28;20049;-72
2022/04/11 15:18:28;;;;;;;10.25;5.15;;;;;;;;;;6248534;28;21216;-72
2022/04/11 15:21:30;;;;;;;8.63;4.63;;;;;;;;;;6253248;28;20056;-72
2022/04/11 15:24:34;;;;;;;5.73;4.60;;;;;;;;;;6252916;28;20087;-71
2022/04/11 15:27:36;;;;;;;26.10;5.53;;;;;;;;;;6253987;28;20049;-72
2022/04/11 15:30:38;;;;;;;15.73;4.00;;;;;;;;;;6253622;28;20079;-72
2022/04/11 15:33:40;;;;;;;8.20;3.53;;;;;;;;;;6258677;28;21053;-72
2022/04/11 15:36:41;;;;;;;3.72;3.15;;;;;;;;;;6260903;28;20193;-71
2022/04/11 15:39:45;;;;;;;4.33;3.10;;;;;;;;;;6260847;28;20092;-72
2022/04/11 15:42:48;;;;;;;6.10;3.03;;;;;;;;;;6255858;28;20546;-72
2022/04/11 15:45:49;;;;;;;6.22;3.28;;;;;;;;;;6253237;28;20064;-72
2022/04/11 15:48:51;;;;;;;7.88;3.22;;;;;;;;;;6260416;28;20053;-72
2022/04/11 15:51:53;;;;;;;3.53;3.10;;;;;;;;;;6259509;28;20057;-71
2022/04/11 15:54:57;;;;;;;5.07;3.20;;;;;;;;;;6257586;28;20205;-72
2022/04/11 15:57:59;;;;;;;4.88;3.00;;;;;;;;;;6254757;28;20132;-71
2022/04/11 16:01:01;;;;;;;8.95;2.85;;;;;;;;;;6258153;28;20140;-70
2022/04/11 16:04:03;;;;;;;5.77;2.00;;;;;;;;;;6253203;28;20085;-70
2022/04/11 16:07:05;;;;;;;7.07;2.30;;;;;;;;;;6258102;28;20050;-71
2022/04/11 16:10:10;;;;;;;2.38;1.70;;;;;;;;;;6262405;28;20042;-71
2022/04/11 16:13:12;;;;;;;3.45;1.65;;;;;;;;;;6260851;28;20090;-71
2022/04/11 16:16:13;;;;;;;4.50;1.85;;;;;;;;;;6261759;28;20041;-72
2022/04/11 16:19:15;;;;;;;4.80;1.80;;;;;;;;;;6256399;28;20053;-73
2022/04/11 16:22:16;;;;;;;4.20;2.15;;;;;;;;;;6254473;28;20472;-70
2022/04/11 16:25:20;;;;;;;65.07;6.05;;;;;;;;;;6253124;28;20383;-72
2022/04/11 16:28:21;;;;;;;;;;;;;;;;;;6254610;28;20134;-68
2022/04/11 16:31:23;;;;;;;4.30;1.70;;;;;;;;;;6254595;28;19924;-72
2022/04/11 16:34:24;;;;;;;2.70;1.73;;;;;;;;;;6257024;28;20456;-71
2022/04/11 16:37:26;;;;;;;2.10;1.60;;;;;;;;;;6257564;28;20144;-71
2022/04/11 16:40:32;;;;;;;7.55;2.92;;;;;;;;;;6258450;28;21584;-72
2022/04/11 16:43:34;;;;;;;7.13;1.83;;;;;;;;;;6260476;28;20048;-72
2022/04/11 16:46:37;;;;;;;5.38;2.08;;;;;;;;;;6263032;28;20049;-73
2022/04/11 16:49:38;;;;;;;4.00;1.77;;;;;;;;;;6257777;28;20133;-72
2022/04/11 16:52:40;;;;;;;4.43;1.52;;;;;;;;;;6258313;28;20045;-72
2022/04/11 16:55:45;;;;;;;18.30;2.38;;;;;;;;;;6253863;28;20041;-73
2022/04/11 16:58:46;;;;;;;7.63;2.40;;;;;;;;;;6256766;28;20118;-73
2022/04/11 17:01:48;;;;;;;4.90;2.30;;;;;;;;;;6254977;28;20442;-72
2022/04/11 17:04:50;;;;;;;4.70;2.40;;;;;;;;;;6252539;28;20100;-72
2022/04/11 17:07:51;;;;;;;17.13;2.55;;;;;;;;;;6258882;28;20088;-72
2022/04/11 17:10:54;;;;;;;7.15;2.17;;;;;;;;;;6253485;28;20056;-73
2022/04/11 17:13:57;;;;;;;3.95;2.38;;;;;;;;;;6258277;28;20138;-72
2022/04/11 17:20:18;;;;;;;6.40;1.77;;;;;;;;;;6255949;28;20053;-72
2022/04/11 17:23:20;;;;;;;5.50;2.15;;;;;;;;;;6256374;28;20405;-73
2022/04/11 17:26:23;;;;;;;3.78;1.33;;;;;;;;;;6259069;28;20111;-73
2022/04/11 17:29:24;;;;;;;2.72;1.15;;;;;;;;;;6263852;28;20049;-73
2022/04/11 17:32:26;;;;;;;3.22;1.02;;;;;;;;;;6260398;28;20357;-69
2022/04/11 17:35:28;;;;;;;1.17;0.70;;;;;;;;;;6262277;28;20051;-69
2022/04/11 17:38:29;;;;;;;1.92;0.90;;;;;;;;;;6253748;28;20152;-69
2022/04/11 17:41:32;;;;;;;4.78;1.00;;;;;;;;;;6253512;28;20462;-69
2022/04/11 17:44:34;;;;;;;1.17;0.65;;;;;;;;;;6261547;28;20056;-71
2022/04/11 17:47:37;;;;;;;1.88;0.85;;;;;;;;;;6256597;28;20056;-69
2022/04/11 17:50:39;;;;;;;4.40;1.05;;;;;;;;;;6258804;28;20067;-74
2022/04/11 17:53:41;;;;;;;1.02;0.60;;;;;;;;;;6256197;28;20097;-70
2022/04/11 17:56:44;;;;;;;2.97;1.02;;;;;;;;;;6252504;28;20384;-72
2022/04/11 17:59:45;;;;;;;2.67;0.82;;;;;;;;;;6253252;28;20053;-73
2022/04/11 18:02:47;;;;;;;4.03;1.38;;;;;;;;;;6255507;28;20500;-72
2022/04/11 18:05:49;;;;;;;9.25;1.65;;;;;;;;;;6256634;28;20404;-73
2022/04/11 18:08:51;;;;;;;2.28;0.73;;;;;;;;;;6253808;28;20049;-73
2022/04/11 18:11:54;;;;;;;2.83;0.80;;;;;;;;;;6255467;28;20569;-74
2022/04/11 18:14:56;;;;;;;5.63;1.13;;;;;;;;;;6255316;28;20076;-73
2022/04/11 18:17:57;;;;;;;3.30;1.73;;;;;;;;;;6257370;28;20517;-73
2022/04/11 18:20:59;;;;;;;2.42;0.80;;;;;;;;;;6253680;28;20566;-72
2022/04/11 18:24:04;;;;;;;2.65;1.00;;;;;;;;;;6258800;28;20142;-71
2022/04/11 18:27:08;;;;;;;3.25;1.02;;;;;;;;;;6254874;28;20136;-71